sensor_id;sensor_type;location;lat;lon;timestamp;pressure;altitude;pressure_sealevel;temperature;humidity
69848;BME280;57143;55.940;37.496;2023-11-19T00:01:36;100442.34;;;-8.00;100.00
69848;BME280;57143;55.940;37.496;2023-11-19T00:04:04;100451.19;;;-8.01;100.00
69848;BME280;57143;55.940;37.496;2023-11-19T00:06:31;100446.84;;;-8.02;100.00
69848;BME280;57143;55.940;37.496;2023-11-19T00:08:59;100432.41;;;-8.10;100.00
69848;BME280;57143;55.940;37.496;2023-11-19T00:11:27;100448.56;;;-8.01;100.00
69848;BME280;57143;55.940;37.496;2023-11-19T00:13:55;100447.59;;;-8.00;100.00
69848;BME280;57143;55.940;37.496;2023-11-19T00:16:22;100449.47;;;-8.02;100.00
69848;BME280;57143;55.940;37.496;2023-11-19T00:18:50;100448.69;;;-8.04;100.00
69848;BME280;57143;55.940;37.496;2023-11-19T00:21:17;100407.94;;;-8.26;100.00
69848;BME280;57143;55.940;37.496;2023-11-19T00:23:44;100453.22;;;-8.06;100.00
69848;BME280;57143;55.940;37.496;2023-11-19T00:26:11;100444.78;;;-8.12;100.00
69848;BME280;57143;55.940;37.496;2023-11-19T00:28:40;100381.53;;;-8.41;100.00
69848;BME280;57143;55.940;37.496;2023-11-19T00:31:10;100430.34;;;-8.21;100.00
69848;BME280;57143;55.940;37.496;2023-11-19T00:33:37;100419.28;;;-8.26;100.00
69848;BME280;57143;55.940;37.496;2023-11-19T00:36:06;100445.81;;;-8.15;100.00
69848;BME280;57143;55.940;37.496;2023-11-19T00:38:33;100429.00;;;-8.28;100.00
69848;BME280;57143;55.940;37.496;2023-11-19T00:41:01;100439.94;;;-8.20;100.00
69848;BME280;57143;55.940;37.496;2023-11-19T00:43:28;100423.69;;;-8.26;100.00
69848;BME280;57143;55.940;37.496;2023-11-19T00:45:55;100409.78;;;-8.28;100.00
69848;BME280;57143;55.940;37.496;2023-11-19T00:48:24;100420.69;;;-8.20;100.00
69848;BME280;57143;55.940;37.496;2023-11-19T00:50:52;100426.47;;;-8.14;100.00
69848;BME280;57143;55.940;37.496;2023-11-19T00:53:19;100425.63;;;-8.14;100.00
69848;BME280;57143;55.940;37.496;2023-11-19T00:55:46;100423.66;;;-8.11;100.00
69848;BME280;57143;55.940;37.496;2023-11-19T00:58:14;100375.50;;;-8.43;100.00
69848;BME280;57143;55.940;37.496;2023-11-19T01:00:42;100416.28;;;-8.20;100.00
69848;BME280;57143;55.940;37.496;2023-11-19T01:03:10;100394.31;;;-8.35;100.00
69848;BME280;57143;55.940;37.496;2023-11-19T01:05:39;100403.16;;;-8.36;100.00
69848;BME280;57143;55.940;37.496;2023-11-19T01:08:07;100420.44;;;-8.16;100.00
69848;BME280;57143;55.940;37.496;2023-11-19T01:10:37;100407.22;;;-8.14;100.00
69848;BME280;57143;55.940;37.496;2023-11-19T01:13:04;100401.97;;;-8.14;100.00
69848;BME280;57143;55.940;37.496;2023-11-19T01:15:32;100366.50;;;-8.39;100.00
69848;BME280;57143;55.940;37.496;2023-11-19T01:17:59;100402.88;;;-8.15;100.00
69848;BME280;57143;55.940;37.496;2023-11-19T01:20:27;100398.66;;;-8.18;100.00
69848;BME280;57143;55.940;37.496;2023-11-19T01:22:56;100395.25;;;-8.20;100.00
69848;BME280;57143;55.940;37.496;2023-11-19T01:25:23;100385.66;;;-8.21;100.00
69848;BME280;57143;55.940;37.496;2023-11-19T01:27:51;100390.00;;;-8.20;100.00
69848;BME280;57143;55.940;37.496;2023-11-19T01:30:18;100362.09;;;-8.38;100.00
69848;BME280;57143;55.940;37.496;2023-11-19T01:32:45;100367.19;;;-8.35;100.00
69848;BME280;57143;55.940;37.496;2023-11-19T01:35:12;100396.53;;;-8.11;100.00
69848;BME280;57143;55.940;37.496;2023-11-19T01:37:40;100359.47;;;-8.22;100.00
69848;BME280;57143;55.940;37.496;2023-11-19T01:40:10;100383.31;;;-7.94;100.00
69848;BME280;57143;55.940;37.496;2023-11-19T01:42:37;100387.22;;;-7.86;100.00
69848;BME280;57143;55.940;37.496;2023-11-19T01:45:06;100387.72;;;-7.79;100.00
69848;BME280;57143;55.940;37.496;2023-11-19T01:47:35;100386.34;;;-7.71;100.00
69848;BME280;57143;55.940;37.496;2023-11-19T01:50:03;100344.88;;;-7.97;100.00
69848;BME280;57143;55.940;37.496;2023-11-19T01:52:34;100389.13;;;-7.58;100.00
69848;BME280;57143;55.940;37.496;2023-11-19T01:55:02;100378.41;;;-7.55;100.00
69848;BME280;57143;55.940;37.496;2023-11-19T01:57:33;100360.19;;;-7.58;100.00
69848;BME280;57143;55.940;37.496;2023-11-19T02:00:00;100365.84;;;-7.50;100.00
69848;BME280;57143;55.940;37.496;2023-11-19T02:02:31;100373.13;;;-7.40;100.00
69848;BME280;57143;55.940;37.496;2023-11-19T02:04:58;100359.19;;;-7.42;100.00
69848;BME280;57143;55.940;37.496;2023-11-19T02:07:26;100362.75;;;-7.27;100.00
69848;BME280;57143;55.940;37.496;2023-11-19T02:09:53;100368.78;;;-7.25;100.00
69848;BME280;57143;55.940;37.496;2023-11-19T02:12:20;100330.25;;;-7.42;100.00
69848;BME280;57143;55.940;37.496;2023-11-19T02:14:49;100353.97;;;-7.28;100.00
69848;BME280;57143;55.940;37.496;2023-11-19T02:17:25;100360.25;;;-7.15;100.00
69848;BME280;57143;55.940;37.496;2023-11-19T02:19:53;100360.91;;;-7.11;100.00
69848;BME280;57143;55.940;37.496;2023-11-19T02:22:20;100367.75;;;-7.08;100.00
69848;BME280;57143;55.940;37.496;2023-11-19T02:24:51;100333.97;;;-7.16;100.00
69848;BME280;57143;55.940;37.496;2023-11-19T02:27:25;100354.34;;;-7.04;100.00
69848;BME280;57143;55.940;37.496;2023-11-19T02:29:58;100365.06;;;-6.93;100.00
69848;BME280;57143;55.940;37.496;2023-11-19T02:32:27;100370.72;;;-6.85;100.00
69848;BME280;57143;55.940;37.496;2023-11-19T02:34:56;100368.00;;;-6.83;100.00
69848;BME280;57143;55.940;37.496;2023-11-19T02:37:23;100356.63;;;-6.84;100.00
69848;BME280;57143;55.940;37.496;2023-11-19T02:39:51;100348.53;;;-6.81;100.00
69848;BME280;57143;55.940;37.496;2023-11-19T02:42:18;100369.72;;;-6.68;100.00
69848;BME280;57143;55.940;37.496;2023-11-19T02:44:45;100352.28;;;-6.71;100.00
69848;BME280;57143;55.940;37.496;2023-11-19T02:47:15;100329.72;;;-6.75;100.00
69848;BME280;57143;55.940;37.496;2023-11-19T02:49:43;100359.63;;;-6.62;100.00
69848;BME280;57143;55.940;37.496;2023-11-19T02:52:10;100346.56;;;-6.63;100.00
69848;BME280;57143;55.940;37.496;2023-11-19T02:54:37;100344.38;;;-6.57;100.00
69848;BME280;57143;55.940;37.496;2023-11-19T02:57:05;100357.31;;;-6.52;100.00
69848;BME280;57143;55.940;37.496;2023-11-19T02:59:38;100348.63;;;-6.54;100.00
69848;BME280;57143;55.940;37.496;2023-11-19T03:02:07;100329.22;;;-6.53;100.00
69848;BME280;57143;55.940;37.496;2023-11-19T03:04:38;100339.22;;;-6.44;100.00
69848;BME280;57143;55.940;37.496;2023-11-19T03:07:06;100299.41;;;-6.68;100.00
69848;BME280;57143;55.940;37.496;2023-11-19T03:09:34;100339.97;;;-6.42;100.00
69848;BME280;57143;55.940;37.496;2023-11-19T03:12:01;100314.47;;;-6.56;100.00
69848;BME280;57143;55.940;37.496;2023-11-19T03:14:33;100303.53;;;-6.64;100.00
69848;BME280;57143;55.940;37.496;2023-11-19T03:17:01;100347.69;;;-6.39;100.00
69848;BME280;57143;55.940;37.496;2023-11-19T03:19:29;100340.88;;;-6.29;100.00
69848;BME280;57143;55.940;37.496;2023-11-19T03:21:57;100338.34;;;-6.31;100.00
69848;BME280;57143;55.940;37.496;2023-11-19T03:24:25;100340.50;;;-6.23;100.00
69848;BME280;57143;55.940;37.496;2023-11-19T03:26:52;100331.09;;;-6.27;100.00
69848;BME280;57143;55.940;37.496;2023-11-19T03:29:19;100328.91;;;-6.21;100.00
69848;BME280;57143;55.940;37.496;2023-11-19T03:31:46;100317.81;;;-6.26;100.00
69848;BME280;57143;55.940;37.496;2023-11-19T03:34:13;100336.72;;;-6.19;100.00
69848;BME280;57143;55.940;37.496;2023-11-19T03:36:41;100326.38;;;-6.22;100.00
69848;BME280;57143;55.940;37.496;2023-11-19T03:39:10;100327.22;;;-6.22;100.00
69848;BME280;57143;55.940;37.496;2023-11-19T03:41:37;100324.50;;;-6.20;100.00
69848;BME280;57143;55.940;37.496;2023-11-19T03:44:05;100335.50;;;-6.14;100.00
69848;BME280;57143;55.940;37.496;2023-11-19T03:46:32;100334.28;;;-6.22;100.00
69848;BME280;57143;55.940;37.496;2023-11-19T03:49:00;100308.69;;;-6.34;100.00
69848;BME280;57143;55.940;37.496;2023-11-19T03:51:27;100324.59;;;-6.22;100.00
69848;BME280;57143;55.940;37.496;2023-11-19T03:53:55;100319.50;;;-6.25;100.00
69848;BME280;57143;55.940;37.496;2023-11-19T03:56:23;100260.59;;;-6.52;100.00
69848;BME280;57143;55.940;37.496;2023-11-19T03:58:50;100319.97;;;-6.18;100.00
69848;BME280;57143;55.940;37.496;2023-11-19T04:01:18;100321.38;;;-6.13;100.00
69848;BME280;57143;55.940;37.496;2023-11-19T04:03:45;100324.56;;;-6.08;100.00
69848;BME280;57143;55.940;37.496;2023-11-19T04:06:12;100319.47;;;-6.11;100.00
69848;BME280;57143;55.940;37.496;2023-11-19T04:08:39;100320.41;;;-6.12;100.00
69848;BME280;57143;55.940;37.496;2023-11-19T04:11:07;100314.94;;;-6.09;100.00
69848;BME280;57143;55.940;37.496;2023-11-19T04:13:36;100288.66;;;-6.10;100.00
69848;BME280;57143;55.940;37.496;2023-11-19T04:16:03;100291.75;;;-6.04;100.00
69848;BME280;57143;55.940;37.496;2023-11-19T04:18:31;100255.47;;;-6.27;100.00
69848;BME280;57143;55.940;37.496;2023-11-19T04:20:58;100290.72;;;-6.01;100.00
69848;BME280;57143;55.940;37.496;2023-11-19T04:23:25;100281.09;;;-6.02;100.00
69848;BME280;57143;55.940;37.496;2023-11-19T04:25:53;100280.25;;;-6.03;100.00
69848;BME280;57143;55.940;37.496;2023-11-19T04:28:20;100279.63;;;-5.94;100.00
69848;BME280;57143;55.940;37.496;2023-11-19T04:30:49;100252.13;;;-6.16;100.00
69848;BME280;57143;55.940;37.496;2023-11-19T04:33:16;100291.25;;;-5.96;100.00
69848;BME280;57143;55.940;37.496;2023-11-19T04:35:43;100281.72;;;-5.99;100.00
69848;BME280;57143;55.940;37.496;2023-11-19T04:38:11;100290.94;;;-5.92;100.00
69848;BME280;57143;55.940;37.496;2023-11-19T04:40:38;100269.53;;;-6.14;100.00
69848;BME280;57143;55.940;37.496;2023-11-19T04:43:05;100253.28;;;-6.20;100.00
69848;BME280;57143;55.940;37.496;2023-11-19T04:45:33;100290.59;;;-6.00;100.00
69848;BME280;57143;55.940;37.496;2023-11-19T04:48:01;100295.56;;;-5.95;100.00
69848;BME280;57143;55.940;37.496;2023-11-19T04:50:29;100295.41;;;-5.92;100.00
69848;BME280;57143;55.940;37.496;2023-11-19T04:52:56;100299.63;;;-5.89;100.00
69848;BME280;57143;55.940;37.496;2023-11-19T04:55:23;100295.75;;;-5.84;100.00
69848;BME280;57143;55.940;37.496;2023-11-19T04:57:50;100296.69;;;-5.85;100.00
69848;BME280;57143;55.940;37.496;2023-11-19T05:00:18;100281.72;;;-5.99;100.00
69848;BME280;57143;55.940;37.496;2023-11-19T05:02:47;100286.53;;;-5.91;100.00
69848;BME280;57143;55.940;37.496;2023-11-19T05:05:17;100305.84;;;-5.78;100.00
69848;BME280;57143;55.940;37.496;2023-11-19T05:07:44;100301.53;;;-5.79;100.00
69848;BME280;57143;55.940;37.496;2023-11-19T05:10:11;100301.41;;;-5.90;100.00
69848;BME280;57143;55.940;37.496;2023-11-19T05:12:38;100287.28;;;-5.76;100.00
69848;BME280;57143;55.940;37.496;2023-11-19T05:15:07;100284.94;;;-5.81;100.00
69848;BME280;57143;55.940;37.496;2023-11-19T05:17:34;100297.75;;;-5.75;100.00
69848;BME280;57143;55.940;37.496;2023-11-19T05:20:03;100279.78;;;-5.82;100.00
69848;BME280;57143;55.940;37.496;2023-11-19T05:22:32;100291.63;;;-5.75;100.00
69848;BME280;57143;55.940;37.496;2023-11-19T05:24:59;100302.81;;;-5.72;100.00
69848;BME280;57143;55.940;37.496;2023-11-19T05:27:29;100295.09;;;-5.75;100.00
69848;BME280;57143;55.940;37.496;2023-11-19T05:29:56;100308.16;;;-5.59;100.00
69848;BME280;57143;55.940;37.496;2023-11-19T05:32:23;100303.03;;;-5.62;100.00
69848;BME280;57143;55.940;37.496;2023-11-19T05:34:51;100311.31;;;-5.54;100.00
69848;BME280;57143;55.940;37.496;2023-11-19T05:37:18;100298.34;;;-5.57;100.00
69848;BME280;57143;55.940;37.496;2023-11-19T05:39:47;100258.34;;;-5.78;100.00
69848;BME280;57143;55.940;37.496;2023-11-19T05:42:14;100282.38;;;-5.56;100.00
69848;BME280;57143;55.940;37.496;2023-11-19T05:44:42;100278.16;;;-5.58;100.00
69848;BME280;57143;55.940;37.496;2023-11-19T05:47:09;100302.47;;;-5.41;100.00
69848;BME280;57143;55.940;37.496;2023-11-19T05:49:36;100294.03;;;-5.46;100.00
69848;BME280;57143;55.940;37.496;2023-11-19T05:52:04;100298.25;;;-5.43;100.00
69848;BME280;57143;55.940;37.496;2023-11-19T05:54:33;100279.97;;;-5.46;100.00
69848;BME280;57143;55.940;37.496;2023-11-19T05:57:05;100307.91;;;-5.30;100.00
69848;BME280;57143;55.940;37.496;2023-11-19T05:59:34;100297.84;;;-5.37;100.00
69848;BME280;57143;55.940;37.496;2023-11-19T06:02:02;100309.91;;;-5.33;100.00
69848;BME280;57143;55.940;37.496;2023-11-19T06:04:29;100283.97;;;-5.53;100.00
69848;BME280;57143;55.940;37.496;2023-11-19T06:06:56;100304.69;;;-5.35;100.00
69848;BME280;57143;55.940;37.496;2023-11-19T06:09:24;100300.16;;;-5.33;100.00
69848;BME280;57143;55.940;37.496;2023-11-19T06:11:51;100307.25;;;-5.33;100.00
69848;BME280;57143;55.940;37.496;2023-11-19T06:14:20;100282.38;;;-5.43;100.00
69848;BME280;57143;55.940;37.496;2023-11-19T06:16:47;100284.53;;;-5.36;100.00
69848;BME280;57143;55.940;37.496;2023-11-19T06:19:14;100303.16;;;-5.25;100.00
69848;BME280;57143;55.940;37.496;2023-11-19T06:21:41;100294.25;;;-5.24;100.00
69848;BME280;57143;55.940;37.496;2023-11-19T06:24:09;100289.94;;;-5.25;100.00
69848;BME280;57143;55.940;37.496;2023-11-19T06:26:36;100283.06;;;-5.27;100.00
69848;BME280;57143;55.940;37.496;2023-11-19T06:29:03;100297.53;;;-5.20;100.00
69848;BME280;57143;55.940;37.496;2023-11-19T06:31:32;100295.44;;;-5.15;100.00
69848;BME280;57143;55.940;37.496;2023-11-19T06:33:59;100271.34;;;-5.23;100.00
69848;BME280;57143;55.940;37.496;2023-11-19T06:36:26;100237.00;;;-5.36;100.00
69848;BME280;57143;55.940;37.496;2023-11-19T06:38:56;100287.00;;;-5.08;100.00
69848;BME280;57143;55.940;37.496;2023-11-19T06:41:23;100282.97;;;-5.01;100.00
69848;BME280;57143;55.940;37.496;2023-11-19T06:43:51;100276.97;;;-5.03;100.00
69848;BME280;57143;55.940;37.496;2023-11-19T06:46:18;100288.78;;;-4.83;100.00
69848;BME280;57143;55.940;37.496;2023-11-19T06:48:47;100287.84;;;-4.82;100.00
69848;BME280;57143;55.940;37.496;2023-11-19T06:51:15;100278.94;;;-4.81;100.00
69848;BME280;57143;55.940;37.496;2023-11-19T06:53:42;100285.91;;;-4.68;100.00
69848;BME280;57143;55.940;37.496;2023-11-19T06:56:18;100292.91;;;-4.54;100.00
69848;BME280;57143;55.940;37.496;2023-11-19T06:58:46;100289.50;;;-4.56;100.00
69848;BME280;57143;55.940;37.496;2023-11-19T07:01:14;100291.94;;;-4.53;100.00
69848;BME280;57143;55.940;37.496;2023-11-19T07:03:42;100297.44;;;-4.56;100.00
69848;BME280;57143;55.940;37.496;2023-11-19T07:06:11;100284.13;;;-4.67;100.00
69848;BME280;57143;55.940;37.496;2023-11-19T07:08:41;100285.38;;;-4.73;100.00
69848;BME280;57143;55.940;37.496;2023-11-19T07:11:08;100312.34;;;-4.55;100.00
69848;BME280;57143;55.940;37.496;2023-11-19T07:13:37;100296.41;;;-4.66;100.00
69848;BME280;57143;55.940;37.496;2023-11-19T07:16:05;100310.66;;;-4.56;100.00
69848;BME280;57143;55.940;37.496;2023-11-19T07:18:35;100340.81;;;-4.46;100.00
69848;BME280;57143;55.940;37.496;2023-11-19T07:21:04;100339.09;;;-4.34;100.00
69848;BME280;57143;55.940;37.496;2023-11-19T07:23:33;100344.91;;;-4.29;100.00
69848;BME280;57143;55.940;37.496;2023-11-19T07:26:00;100324.53;;;-4.52;100.00
69848;BME280;57143;55.940;37.496;2023-11-19T07:28:27;100317.22;;;-4.61;100.00
69848;BME280;57143;55.940;37.496;2023-11-19T07:30:55;100361.09;;;-4.46;100.00
69848;BME280;57143;55.940;37.496;2023-11-19T07:33:23;100363.22;;;-4.51;100.00
69848;BME280;57143;55.940;37.496;2023-11-19T07:35:50;100377.19;;;-4.62;100.00
69848;BME280;57143;55.940;37.496;2023-11-19T07:38:18;100389.13;;;-4.69;100.00
69848;BME280;57143;55.940;37.496;2023-11-19T07:40:46;100383.75;;;-4.55;100.00
69848;BME280;57143;55.940;37.496;2023-11-19T07:43:14;100382.50;;;-4.49;100.00
69848;BME280;57143;55.940;37.496;2023-11-19T07:45:42;100365.78;;;-4.62;100.00
69848;BME280;57143;55.940;37.496;2023-11-19T07:48:09;100358.06;;;-4.78;100.00
69848;BME280;57143;55.940;37.496;2023-11-19T07:50:36;100375.72;;;-4.66;100.00
69848;BME280;57143;55.940;37.496;2023-11-19T07:53:04;100379.41;;;-4.43;100.00
69848;BME280;57143;55.940;37.496;2023-11-19T07:55:31;100373.19;;;-4.42;100.00
69848;BME280;57143;55.940;37.496;2023-11-19T07:58:00;100358.78;;;-4.51;100.00
69848;BME280;57143;55.940;37.496;2023-11-19T08:00:27;100378.75;;;-4.34;100.00
69848;BME280;57143;55.940;37.496;2023-11-19T08:02:54;100387.03;;;-4.26;100.00
69848;BME280;57143;55.940;37.496;2023-11-19T08:05:21;100374.97;;;-4.30;100.00
69848;BME280;57143;55.940;37.496;2023-11-19T08:07:50;100377.72;;;-4.32;100.00
69848;BME280;57143;55.940;37.496;2023-11-19T08:10:18;100379.28;;;-4.29;100.00
69848;BME280;57143;55.940;37.496;2023-11-19T08:12:45;100364.16;;;-4.40;100.00
69848;BME280;57143;55.940;37.496;2023-11-19T08:15:14;100366.63;;;-4.49;100.00
69848;BME280;57143;55.940;37.496;2023-11-19T08:17:41;100375.06;;;-4.32;100.00
69848;BME280;57143;55.940;37.496;2023-11-19T08:20:09;100373.50;;;-4.47;100.00
69848;BME280;57143;55.940;37.496;2023-11-19T08:22:37;100379.94;;;-4.51;100.00
69848;BME280;57143;55.940;37.496;2023-11-19T08:25:05;100384.59;;;-4.54;100.00
69848;BME280;57143;55.940;37.496;2023-11-19T08:27:33;100376.44;;;-4.51;100.00
69848;BME280;57143;55.940;37.496;2023-11-19T08:30:00;100365.56;;;-4.47;100.00
69848;BME280;57143;55.940;37.496;2023-11-19T08:32:29;100340.38;;;-4.65;100.00
69848;BME280;57143;55.940;37.496;2023-11-19T08:34:57;100383.53;;;-4.39;100.00
69848;BME280;57143;55.940;37.496;2023-11-19T08:37:24;100377.59;;;-4.30;100.00
69848;BME280;57143;55.940;37.496;2023-11-19T08:39:51;100386.72;;;-4.34;100.00
69848;BME280;57143;55.940;37.496;2023-11-19T08:42:18;100384.59;;;-4.29;100.00
69848;BME280;57143;55.940;37.496;2023-11-19T08:44:49;100376.53;;;-4.28;100.00
69848;BME280;57143;55.940;37.496;2023-11-19T08:47:20;100377.59;;;-4.18;100.00
69848;BME280;57143;55.940;37.496;2023-11-19T08:49:50;100373.56;;;-4.11;100.00
69848;BME280;57143;55.940;37.496;2023-11-19T08:52:18;100373.22;;;-4.06;100.00
69848;BME280;57143;55.940;37.496;2023-11-19T08:54:45;100360.63;;;-4.03;100.00
69848;BME280;57143;55.940;37.496;2023-11-19T08:57:12;100364.66;;;-3.97;100.00
69848;BME280;57143;55.940;37.496;2023-11-19T08:59:40;100355.69;;;-4.07;100.00
69848;BME280;57143;55.940;37.496;2023-11-19T09:02:07;100312.50;;;-4.33;100.00
69848;BME280;57143;55.940;37.496;2023-11-19T09:04:34;100367.53;;;-4.13;100.00
69848;BME280;57143;55.940;37.496;2023-11-19T09:07:04;100358.13;;;-4.29;100.00
69848;BME280;57143;55.940;37.496;2023-11-19T09:09:31;100353.16;;;-4.46;100.00
69848;BME280;57143;55.940;37.496;2023-11-19T09:12:01;100362.38;;;-4.39;100.00
69848;BME280;57143;55.940;37.496;2023-11-19T09:14:28;100362.66;;;-4.19;100.00
69848;BME280;57143;55.940;37.496;2023-11-19T09:16:56;100368.91;;;-4.07;100.00
69848;BME280;57143;55.940;37.496;2023-11-19T09:19:23;100327.25;;;-4.41;100.00
69848;BME280;57143;55.940;37.496;2023-11-19T09:21:51;100362.16;;;-4.24;100.00
69848;BME280;57143;55.940;37.496;2023-11-19T09:24:20;100367.66;;;-4.27;100.00
69848;BME280;57143;55.940;37.496;2023-11-19T09:26:47;100363.41;;;-4.17;100.00
69848;BME280;57143;55.940;37.496;2023-11-19T09:29:15;100346.47;;;-4.14;100.00
69848;BME280;57143;55.940;37.496;2023-11-19T09:31:42;100361.28;;;-4.12;100.00
69848;BME280;57143;55.940;37.496;2023-11-19T09:34:09;100335.25;;;-4.18;100.00
69848;BME280;57143;55.940;37.496;2023-11-19T09:36:36;100359.38;;;-4.10;100.00
69848;BME280;57143;55.940;37.496;2023-11-19T09:39:04;100341.25;;;-4.16;100.00
69848;BME280;57143;55.940;37.496;2023-11-19T09:41:37;100350.69;;;-4.12;100.00
69848;BME280;57143;55.940;37.496;2023-11-19T09:44:04;100347.34;;;-4.26;100.00
69848;BME280;57143;55.940;37.496;2023-11-19T09:46:32;100331.59;;;-4.40;100.00
69848;BME280;57143;55.940;37.496;2023-11-19T09:49:01;100348.16;;;-4.13;100.00
69848;BME280;57143;55.940;37.496;2023-11-19T09:51:29;100329.09;;;-4.06;100.00
69848;BME280;57143;55.940;37.496;2023-11-19T09:53:57;100338.19;;;-4.10;100.00
69848;BME280;57143;55.940;37.496;2023-11-19T09:56:24;100337.81;;;-4.29;100.00
69848;BME280;57143;55.940;37.496;2023-11-19T09:58:54;100322.34;;;-4.22;100.00
69848;BME280;57143;55.940;37.496;2023-11-19T10:01:21;100305.41;;;-4.20;100.00
69848;BME280;57143;55.940;37.496;2023-11-19T10:03:49;100291.56;;;-4.36;100.00
69848;BME280;57143;55.940;37.496;2023-11-19T10:06:17;100300.16;;;-4.32;100.00
69848;BME280;57143;55.940;37.496;2023-11-19T10:08:45;100294.09;;;-4.34;100.00
69848;BME280;57143;55.940;37.496;2023-11-19T10:11:12;100282.84;;;-4.49;100.00
69848;BME280;57143;55.940;37.496;2023-11-19T10:13:41;100277.59;;;-4.38;100.00
69848;BME280;57143;55.940;37.496;2023-11-19T10:16:11;100279.63;;;-4.41;100.00
69848;BME280;57143;55.940;37.496;2023-11-19T10:18:44;100274.38;;;-4.54;100.00
69848;BME280;57143;55.940;37.496;2023-11-19T10:21:12;100260.28;;;-4.42;100.00
69848;BME280;57143;55.940;37.496;2023-11-19T10:23:48;100267.22;;;-4.28;100.00
69848;BME280;57143;55.940;37.496;2023-11-19T10:26:17;100258.84;;;-4.22;100.00
69848;BME280;57143;55.940;37.496;2023-11-19T10:28:45;100254.53;;;-4.36;100.00
69848;BME280;57143;55.940;37.496;2023-11-19T10:31:14;100247.47;;;-4.48;100.00
69848;BME280;57143;55.940;37.496;2023-11-19T10:33:42;100246.22;;;-4.42;100.00
69848;BME280;57143;55.940;37.496;2023-11-19T10:36:11;100227.84;;;-4.56;100.00
69848;BME280;57143;55.940;37.496;2023-11-19T10:38:39;100230.88;;;-4.50;100.00
69848;BME280;57143;55.940;37.496;2023-11-19T10:41:07;100252.34;;;-4.42;100.00
69848;BME280;57143;55.940;37.496;2023-11-19T10:43:45;100207.44;;;-4.67;100.00
69848;BME280;57143;55.940;37.496;2023-11-19T10:46:14;100237.19;;;-4.40;100.00
69848;BME280;57143;55.940;37.496;2023-11-19T10:48:46;100219.47;;;-4.50;100.00
69848;BME280;57143;55.940;37.496;2023-11-19T10:51:18;100230.06;;;-4.50;100.00
69848;BME280;57143;55.940;37.496;2023-11-19T10:53:49;100212.63;;;-4.65;100.00
69848;BME280;57143;55.940;37.496;2023-11-19T10:56:17;100236.81;;;-4.59;100.00
69848;BME280;57143;55.940;37.496;2023-11-19T10:58:50;100243.06;;;-4.60;100.00
69848;BME280;57143;55.940;37.496;2023-11-19T11:01:20;100218.88;;;-4.66;100.00
69848;BME280;57143;55.940;37.496;2023-11-19T11:03:51;100206.31;;;-4.88;100.00
69848;BME280;57143;55.940;37.496;2023-11-19T11:06:21;100238.19;;;-4.53;100.00
69848;BME280;57143;55.940;37.496;2023-11-19T11:08:50;100214.88;;;-4.85;100.00
69848;BME280;57143;55.940;37.496;2023-11-19T11:11:18;100228.28;;;-4.62;100.00
69848;BME280;57143;55.940;37.496;2023-11-19T11:13:47;100188.66;;;-4.88;100.00
69848;BME280;57143;55.940;37.496;2023-11-19T11:16:19;100216.88;;;-4.76;100.00
69848;BME280;57143;55.940;37.496;2023-11-19T11:18:49;100222.56;;;-4.69;100.00
69848;BME280;57143;55.940;37.496;2023-11-19T11:21:20;100223.72;;;-4.60;100.00
69848;BME280;57143;55.940;37.496;2023-11-19T11:24:30;100179.34;;;-4.81;100.00
69848;BME280;57143;55.940;37.496;2023-11-19T11:27:22;100208.09;;;-4.76;100.00
69848;BME280;57143;55.940;37.496;2023-11-19T11:29:59;100171.44;;;-4.93;100.00
69848;BME280;57143;55.940;37.496;2023-11-19T11:32:35;100213.38;;;-4.76;100.00
69848;BME280;57143;55.940;37.496;2023-11-19T11:35:19;100151.09;;;-5.16;100.00
69848;BME280;57143;55.940;37.496;2023-11-19T11:37:56;100206.94;;;-4.85;100.00
69848;BME280;57143;55.940;37.496;2023-11-19T11:40:26;100200.72;;;-4.84;100.00
69848;BME280;57143;55.940;37.496;2023-11-19T11:42:53;100185.25;;;-4.77;100.00
69848;BME280;57143;55.940;37.496;2023-11-19T11:45:35;100169.75;;;-4.82;100.00
69848;BME280;57143;55.940;37.496;2023-11-19T11:48:15;100174.97;;;-4.69;100.00
69848;BME280;57143;55.940;37.496;2023-11-19T11:50:53;100178.25;;;-4.65;100.00
69848;BME280;57143;55.940;37.496;2023-11-19T11:53:22;100181.97;;;-4.68;100.00
69848;BME280;57143;55.940;37.496;2023-11-19T11:55:54;100178.72;;;-4.84;100.00
69848;BME280;57143;55.940;37.496;2023-11-19T11:58:26;100179.69;;;-4.85;100.00
69848;BME280;57143;55.940;37.496;2023-11-19T12:00:54;100178.50;;;-4.81;100.00
69848;BME280;57143;55.940;37.496;2023-11-19T12:03:27;100186.03;;;-4.88;100.00
69848;BME280;57143;55.940;37.496;2023-11-19T12:05:55;100164.59;;;-5.08;100.00
69848;BME280;57143;55.940;37.496;2023-11-19T12:08:25;100178.97;;;-5.00;100.00
69848;BME280;57143;55.940;37.496;2023-11-19T12:10:55;100130.72;;;-5.39;100.00
69848;BME280;57143;55.940;37.496;2023-11-19T12:13:24;100185.75;;;-5.08;100.00
69848;BME280;57143;55.940;37.496;2023-11-19T12:16:07;100174.63;;;-5.01;100.00
69848;BME280;57143;55.940;37.496;2023-11-19T12:18:39;100134.09;;;-5.37;100.00
69848;BME280;57143;55.940;37.496;2023-11-19T12:21:07;100183.63;;;-5.03;100.00
69848;BME280;57143;55.940;37.496;2023-11-19T12:23:44;100172.72;;;-4.99;100.00
69848;BME280;57143;55.940;37.496;2023-11-19T12:26:38;100176.09;;;-4.97;100.00
69848;BME280;57143;55.940;37.496;2023-11-19T12:29:06;100177.56;;;-4.93;100.00
69848;BME280;57143;55.940;37.496;2023-11-19T12:31:34;100128.06;;;-5.14;100.00
69848;BME280;57143;55.940;37.496;2023-11-19T12:34:09;100173.94;;;-4.79;100.00
69848;BME280;57143;55.940;37.496;2023-11-19T12:36:40;100173.00;;;-4.78;100.00
69848;BME280;57143;55.940;37.496;2023-11-19T12:39:07;100154.69;;;-4.81;100.00